createdAt,value
2022-11-05T00:02:54.836Z,45.95
2022-11-05T00:08:16.853Z,31.90
2022-11-05T00:13:37.632Z,41.20
2022-11-05T00:18:39.628Z,35.50
2022-11-05T00:24:00.016Z,39.58
2022-11-05T00:34:03.834Z,45.10
2022-11-05T00:39:06.531Z,46.08
2022-11-05T00:44:27.063Z,25.00
2022-11-05T00:49:32.016Z,38.13
2022-11-05T00:54:34.013Z,35.70
2022-11-05T00:59:35.969Z,32.22
2022-11-05T01:04:37.948Z,25.65
2022-11-05T01:09:39.849Z,38.15
2022-11-05T01:14:41.833Z,42.58
2022-11-05T01:19:43.810Z,41.22
2022-11-05T01:24:45.724Z,40.55
2022-11-05T01:29:47.645Z,26.48
2022-11-05T01:34:49.657Z,38.58
2022-11-05T01:39:51.618Z,32.13
2022-11-05T01:45:01.147Z,22.77
2022-11-05T01:50:12.186Z,26.73
2022-11-05T01:55:17.639Z,23.58
2022-11-05T02:00:19.698Z,37.03
2022-11-05T02:05:21.964Z,42.88
2022-11-05T02:10:24.611Z,35.97
2022-11-05T02:15:47.172Z,39.92
2022-11-05T02:21:15.327Z,34.83
2022-11-05T02:26:36.249Z,37.92
2022-11-05T02:31:56.847Z,30.90
2022-11-05T02:37:13.276Z,33.70
2022-11-05T02:42:36.559Z,37.10
2022-11-05T02:47:58.030Z,34.00
2022-11-05T02:53:04.619Z,33.38
2022-11-05T02:58:06.809Z,28.60
2022-11-05T03:03:25.309Z,28.27
2022-11-05T03:08:59.269Z,22.02
2022-11-05T03:14:23.080Z,29.30
2022-11-05T03:20:09.031Z,34.58
2022-11-05T03:25:18.181Z,33.55
2022-11-05T03:30:20.576Z,32.65
2022-11-05T03:40:45.992Z,19.80
2022-11-05T03:45:55.175Z,19.45
2022-11-05T03:51:14.759Z,34.22
2022-11-05T03:56:23.647Z,26.17
2022-11-05T04:01:25.996Z,38.55
2022-11-05T04:06:46.879Z,33.30
2022-11-05T04:12:18.287Z,37.20
2022-11-05T04:17:20.229Z,23.90
2022-11-05T04:22:42.078Z,32.90
2022-11-05T04:27:44.926Z,32.00
2022-11-05T04:33:05.663Z,25.52
2022-11-05T04:38:10.712Z,22.60
2022-11-05T04:43:15.641Z,19.17
2022-11-05T04:48:17.711Z,38.03
2022-11-05T04:53:19.728Z,23.88
2022-11-05T04:58:21.941Z,32.53
2022-11-05T05:03:24.070Z,18.42
2022-11-05T05:08:26.041Z,20.80
2022-11-05T05:13:28.076Z,28.52
2022-11-05T05:18:30.076Z,30.42
2022-11-05T05:23:32.016Z,26.63
2022-11-05T05:28:33.989Z,24.42
2022-11-05T05:33:36.178Z,35.00
2022-11-05T05:38:38.313Z,15.85
2022-11-05T05:43:40.288Z,23.95
2022-11-05T05:48:43.393Z,23.20
2022-11-05T05:53:45.704Z,18.50
2022-11-05T06:03:50.153Z,22.10
2022-11-05T06:08:52.121Z,28.85
2022-11-05T06:13:54.111Z,32.65
2022-11-05T06:18:56.140Z,28.98
2022-11-05T06:23:58.188Z,28.65
2022-11-05T06:29:00.166Z,33.40
2022-11-05T06:34:03.082Z,18.95
2022-11-05T06:39:05.080Z,37.75
2022-11-05T06:44:07.049Z,38.25
2022-11-05T06:49:09.022Z,44.70
2022-11-05T06:54:11.124Z,44.97
2022-11-05T06:59:13.202Z,42.03
2022-11-05T07:04:15.420Z,30.45
2022-11-05T07:14:19.252Z,35.95
2022-11-05T07:19:21.374Z,35.08
2022-11-05T07:24:23.373Z,32.70
2022-11-05T07:29:25.355Z,20.73
2022-11-05T07:34:27.385Z,29.85
2022-11-05T07:39:29.397Z,33.53
2022-11-05T07:44:31.407Z,32.10
2022-11-05T07:49:33.367Z,36.60
2022-11-05T07:54:35.376Z,27.48
2022-11-05T07:59:37.426Z,29.92
2022-11-05T08:04:40.707Z,31.05
2022-11-05T08:09:42.803Z,26.55
2022-11-05T08:14:44.808Z,24.38
2022-11-05T08:19:46.835Z,27.58
2022-11-05T08:24:48.905Z,22.25
2022-11-05T08:29:50.908Z,25.25
2022-11-05T08:34:52.873Z,34.40
2022-11-05T08:39:54.837Z,34.05
2022-11-05T08:44:56.862Z,27.95
2022-11-05T08:49:58.877Z,29.67
2022-11-05T08:55:00.891Z,31.27
2022-11-05T09:00:03.207Z,31.63
2022-11-05T09:05:05.608Z,34.38
2022-11-05T09:10:07.908Z,28.92
2022-11-05T09:15:10.570Z,27.90
2022-11-05T09:20:12.706Z,38.47
2022-11-05T09:30:18.327Z,37.78
2022-11-05T09:40:22.618Z,33.90
2022-11-05T09:45:27.407Z,32.28
2022-11-05T09:50:50.956Z,42.30
2022-11-05T09:55:56.717Z,37.30
2022-11-05T10:00:59.370Z,39.15
2022-11-05T10:06:09.528Z,34.08
2022-11-05T10:11:19.102Z,30.40
2022-11-05T10:16:34.720Z,25.42
2022-11-05T10:22:04.871Z,29.17
2022-11-05T10:27:00.959Z,33.28
2022-11-05T10:32:06.038Z,32.00
2022-11-05T10:37:09.263Z,32.88
2022-11-05T10:42:40.866Z,31.80
2022-11-05T10:47:48.867Z,32.70
2022-11-05T10:53:12.513Z,36.95
2022-11-05T10:58:14.856Z,37.17
2022-11-05T11:03:44.248Z,53.65
2022-11-05T11:08:49.186Z,33.05
2022-11-05T11:13:51.662Z,33.85
2022-11-05T11:19:01.537Z,32.42
2022-11-05T11:24:07.315Z,25.55
2022-11-05T11:29:29.354Z,23.80
2022-11-05T11:34:39.304Z,25.95
2022-11-05T11:39:46.384Z,22.33
2022-11-05T11:44:50.187Z,22.83
2022-11-05T11:50:02.815Z,20.92
2022-11-05T11:55:22.640Z,23.17
2022-11-05T12:00:27.213Z,21.92
2022-11-05T12:05:44.364Z,33.92
2022-11-05T12:11:00.681Z,27.92
2022-11-05T12:16:16.002Z,21.52
2022-11-05T12:21:53.268Z,18.63
2022-11-05T12:27:14.206Z,19.17
2022-11-05T12:32:42.819Z,21.73
2022-11-05T12:37:47.810Z,18.35
2022-11-05T12:43:01.938Z,18.73
2022-11-05T12:54:06.616Z,12.88
2022-11-05T12:59:25.980Z,13.13
2022-11-05T13:04:40.107Z,16.13
2022-11-05T13:09:54.347Z,12.77
2022-11-05T13:20:36.700Z,10.52
2022-11-05T13:25:48.877Z,13.70
2022-11-05T13:30:55.336Z,10.23
2022-11-05T13:36:42.709Z,11.63
2022-11-05T13:42:08.659Z,11.38
2022-11-05T13:47:16.520Z,9.48
2022-11-05T13:52:44.711Z,7.75
2022-11-05T13:58:04.974Z,6.93
2022-11-05T14:08:24.628Z,8.13
2022-11-05T14:13:35.075Z,7.80
2022-11-05T14:18:46.573Z,7.40
2022-11-05T14:23:55.484Z,8.13
2022-11-05T14:29:03.715Z,8.55
2022-11-05T14:39:16.619Z,7.78
2022-11-05T14:44:18.724Z,7.80
2022-11-05T14:54:44.372Z,8.48
2022-11-05T14:59:49.134Z,8.43
2022-11-05T15:04:53.437Z,9.55
2022-11-05T15:09:59.114Z,10.20
2022-11-05T15:15:21.754Z,8.45
2022-11-05T15:20:53.371Z,8.77
2022-11-05T15:26:03.554Z,5.88
2022-11-05T15:31:07.138Z,7.85
2022-11-05T15:36:24.875Z,18.77
2022-11-05T15:41:34.266Z,16.27
2022-11-05T15:46:36.502Z,9.95
2022-11-05T15:57:14.220Z,16.30
2022-11-05T16:02:29.652Z,28.02
2022-11-05T16:07:32.595Z,19.08
2022-11-05T16:12:37.170Z,13.63
2022-11-05T16:17:58.518Z,14.25
2022-11-05T16:23:04.650Z,25.38
2022-11-05T16:28:21.090Z,29.15
2022-11-05T16:33:24.228Z,33.63
2022-11-05T16:38:26.478Z,44.95
2022-11-05T16:43:28.902Z,38.05
2022-11-05T16:48:31.186Z,31.20
2022-11-05T16:53:33.422Z,31.83
2022-11-05T16:58:35.772Z,40.20
2022-11-05T17:03:37.882Z,40.92
2022-11-05T17:08:40.492Z,43.50
2022-11-05T17:13:43.315Z,36.30
2022-11-05T17:18:45.941Z,29.92
2022-11-05T17:23:48.097Z,27.27
2022-11-05T17:28:50.632Z,26.38
2022-11-05T17:34:02.494Z,17.85
2022-11-05T17:39:05.226Z,25.23
2022-11-05T17:44:09.638Z,19.33
2022-11-05T17:49:12.436Z,16.50
2022-11-05T17:54:14.655Z,19.58
2022-11-05T17:59:20.820Z,20.27
2022-11-05T18:04:23.347Z,25.98
2022-11-05T18:09:25.437Z,22.17
2022-11-05T18:14:28.294Z,27.08
2022-11-05T18:19:30.931Z,30.60
2022-11-05T18:24:35.614Z,33.67
2022-11-05T18:29:38.353Z,25.65
2022-11-05T18:34:40.871Z,20.17
2022-11-05T18:39:43.595Z,19.30
2022-11-05T18:44:46.215Z,18.77
2022-11-05T18:49:48.752Z,22.42
2022-11-05T18:54:51.319Z,17.05
2022-11-05T18:59:53.715Z,17.83
2022-11-05T19:05:26.869Z,20.23
2022-11-05T19:10:19.229Z,17.77
2022-11-05T19:15:21.674Z,19.55
2022-11-05T19:20:24.581Z,21.35
2022-11-05T19:25:26.751Z,28.02
2022-11-05T19:30:29.202Z,24.85
2022-11-05T19:35:34.614Z,23.67
2022-11-05T19:40:39.582Z,20.42
2022-11-05T19:45:45.210Z,23.90
2022-11-05T19:50:48.513Z,25.60
2022-11-05T19:55:51.123Z,20.02
2022-11-05T20:00:56.573Z,23.40
2022-11-05T20:06:06.625Z,25.05
2022-11-05T20:11:09.618Z,25.10
2022-11-05T20:16:32.939Z,25.35
2022-11-05T20:21:35.911Z,25.35
2022-11-05T20:26:40.475Z,33.35
2022-11-05T20:31:47.494Z,29.48
2022-11-05T20:36:50.901Z,27.52
2022-11-05T20:41:55.533Z,25.75
2022-11-05T20:46:58.895Z,22.10
2022-11-05T20:52:01.892Z,27.70
2022-11-05T20:57:05.070Z,25.05
2022-11-05T21:02:08.532Z,25.25
2022-11-05T21:07:11.815Z,23.55
2022-11-05T21:12:14.944Z,27.58
2022-11-05T21:17:17.812Z,25.88
2022-11-05T21:22:21.785Z,23.95
2022-11-05T21:27:24.658Z,24.27
2022-11-05T21:32:27.259Z,19.08
2022-11-05T21:37:29.511Z,22.13
2022-11-05T21:42:32.869Z,26.48
2022-11-05T21:47:35.185Z,28.33
2022-11-05T21:52:55.694Z,29.23
2022-11-05T21:58:23.057Z,24.38
2022-11-05T22:03:25.100Z,27.08
2022-11-05T22:08:27.554Z,27.35
2022-11-05T22:13:29.779Z,28.58
2022-11-05T22:18:31.863Z,28.25
2022-11-05T22:23:34.027Z,27.08
2022-11-05T22:28:36.138Z,19.98
2022-11-05T22:33:38.167Z,22.50
2022-11-05T22:38:40.810Z,25.13
2022-11-05T22:43:42.821Z,25.45
2022-11-05T22:48:45.963Z,23.83
2022-11-05T22:53:49.254Z,25.85
2022-11-05T22:58:51.753Z,23.48
2022-11-05T23:03:55.650Z,24.00
2022-11-05T23:09:17.369Z,23.23
2022-11-05T23:14:19.741Z,22.45
2022-11-05T23:24:42.605Z,20.70
2022-11-05T23:29:44.608Z,22.58
2022-11-05T23:34:46.653Z,22.50
2022-11-05T23:39:48.640Z,20.73
2022-11-05T23:45:14.091Z,23.55
2022-11-05T23:50:16.629Z,20.73
2022-11-05T23:55:18.658Z,25.15
